ANA982 RJFS-RJTT
Flight info
| Callsign | ANA982 |
|---|---|
| Flight time | 1h 22m |
| Altitude | 35000 |
| Route | FS100 OOITA Y23 ARTIC Y71 XAC |
| Aircraft | B738/M-SDE2E3FGHIRWXY/LB1 |
Departure
| Time | 2026-05-05 06:57 |
|---|---|
| Airport | Kyushu Saga International Airport (RJFS) |
Arrival
| Time | 2026-05-05 08:20 |
|---|---|
| Airport | Tokyo Haneda International Airport (RJTT) |
| Time | Latitude | Longitude | Altitude | Speed | Heading |
|---|---|---|---|---|---|
| 2026-05-05 06:40 | 33.15269 | 130.30308 | 11 ft | 0 kts | 9° |
| 2026-05-05 06:50 | 33.15258 | 130.30306 | 14 ft | 4 kts | 9° |
| 2026-05-05 06:50 | 33.15236 | 130.30302 | 11 ft | 3 kts | 9° |
| 2026-05-05 06:51 | 33.15211 | 130.30300 | 11 ft | 4 kts | 338° |
| 2026-05-05 06:51 | 33.15201 | 130.30316 | 13 ft | 4 kts | 279° |
| 2026-05-05 06:51 | 33.15198 | 130.30337 | 11 ft | 0 kts | 279° |
| 2026-05-05 06:53 | 33.15201 | 130.30319 | 13 ft | 6 kts | 279° |
| 2026-05-05 06:53 | 33.15179 | 130.30262 | 11 ft | 9 kts | 201° |
| 2026-05-05 06:54 | 33.15101 | 130.30246 | 11 ft | 14 kts | 189° |
| 2026-05-05 06:54 | 33.15004 | 130.30227 | 11 ft | 11 kts | 189° |
| 2026-05-05 06:54 | 33.14976 | 130.30175 | 12 ft | 8 kts | 273° |
| 2026-05-05 06:54 | 33.14989 | 130.30078 | 13 ft | 17 kts | 279° |
| 2026-05-05 06:55 | 33.15013 | 130.29896 | 11 ft | 28 kts | 279° |
| 2026-05-05 06:55 | 33.15049 | 130.29637 | 11 ft | 34 kts | 279° |
| 2026-05-05 06:55 | 33.15087 | 130.29360 | 11 ft | 28 kts | 279° |
| 2026-05-05 06:55 | 33.15122 | 130.29249 | 12 ft | 10 kts | 312° |
| 2026-05-05 06:56 | 33.15134 | 130.29188 | 11 ft | 7 kts | 230° |
| 2026-05-05 06:56 | 33.15107 | 130.29207 | 11 ft | 4 kts | 99° |
| 2026-05-05 06:56 | 33.15100 | 130.29260 | 11 ft | 17 kts | 99° |
| 2026-05-05 06:56 | 33.15037 | 130.29720 | 10 ft | 95 kts | 99° |
| 2026-05-05 06:57 | 33.14895 | 130.30770 | 17 ft | 159 kts | 100° |
| 2026-05-05 06:57 | 33.14722 | 130.32119 | 648 ft | 167 kts | 100° |
| 2026-05-05 06:57 | 33.14265 | 130.33402 | 1309 ft | 177 kts | 137° |
| 2026-05-05 06:57 | 33.13209 | 130.34209 | 2044 ft | 184 kts | 154° |
| 2026-05-05 06:58 | 33.12304 | 130.35384 | 2657 ft | 210 kts | 114° |
| 2026-05-05 06:58 | 33.11844 | 130.37137 | 2968 ft | 232 kts | 109° |
| 2026-05-05 06:58 | 33.11309 | 130.38978 | 3602 ft | 238 kts | 114° |
| 2026-05-05 06:58 | 33.10680 | 130.40817 | 4449 ft | 240 kts | 116° |
| 2026-05-05 06:59 | 33.10008 | 130.42666 | 5261 ft | 249 kts | 115° |
| 2026-05-05 06:59 | 33.09337 | 130.44606 | 6012 ft | 262 kts | 109° |
| 2026-05-05 06:59 | 33.09152 | 130.46794 | 6899 ft | 271 kts | 86° |
| 2026-05-05 06:59 | 33.09508 | 130.49027 | 7756 ft | 279 kts | 79° |
| 2026-05-05 07:00 | 33.09964 | 130.51311 | 8518 ft | 286 kts | 78° |
| 2026-05-05 07:00 | 33.10444 | 130.53652 | 9317 ft | 293 kts | 78° |
| 2026-05-05 07:00 | 33.10929 | 130.56031 | 10112 ft | 299 kts | 78° |
| 2026-05-05 07:00 | 33.11429 | 130.58521 | 10527 ft | 320 kts | 78° |
| 2026-05-05 07:01 | 33.11958 | 130.61184 | 10996 ft | 336 kts | 78° |
| 2026-05-05 07:01 | 33.12496 | 130.63916 | 11768 ft | 340 kts | 78° |
| 2026-05-05 07:01 | 33.13038 | 130.66681 | 12568 ft | 344 kts | 78° |
| 2026-05-05 07:01 | 33.13584 | 130.69479 | 13333 ft | 349 kts | 78° |
| 2026-05-05 07:02 | 33.14136 | 130.72322 | 14088 ft | 354 kts | 78° |
| 2026-05-05 07:02 | 33.14695 | 130.75203 | 14769 ft | 359 kts | 78° |
| 2026-05-05 07:02 | 33.15262 | 130.78129 | 15439 ft | 364 kts | 78° |
| 2026-05-05 07:02 | 33.15835 | 130.81093 | 16080 ft | 369 kts | 78° |
| 2026-05-05 07:03 | 33.16415 | 130.84100 | 16751 ft | 374 kts | 78° |
| 2026-05-05 07:03 | 33.16996 | 130.87112 | 17409 ft | 379 kts | 78° |
| 2026-05-05 07:03 | 33.17591 | 130.90203 | 18068 ft | 385 kts | 78° |
| 2026-05-05 07:03 | 33.18168 | 130.93344 | 18664 ft | 389 kts | 82° |
| 2026-05-05 07:04 | 33.18451 | 130.96576 | 19205 ft | 393 kts | 88° |
| 2026-05-05 07:04 | 33.18561 | 130.99865 | 19724 ft | 398 kts | 90° |
| 2026-05-05 07:04 | 33.18668 | 131.03191 | 20256 ft | 404 kts | 89° |
| 2026-05-05 07:04 | 33.18818 | 131.06565 | 20776 ft | 410 kts | 88° |
| 2026-05-05 07:05 | 33.18995 | 131.09986 | 21292 ft | 415 kts | 88° |
| 2026-05-05 07:05 | 33.19176 | 131.13407 | 21790 ft | 420 kts | 88° |
| 2026-05-05 07:05 | 33.19359 | 131.16913 | 22263 ft | 426 kts | 88° |
| 2026-05-05 07:05 | 33.19543 | 131.20460 | 22774 ft | 431 kts | 88° |
| 2026-05-05 07:06 | 33.19726 | 131.24045 | 23272 ft | 436 kts | 88° |
| 2026-05-05 07:06 | 33.19912 | 131.27684 | 23683 ft | 443 kts | 88° |
| 2026-05-05 07:06 | 33.20098 | 131.31375 | 24055 ft | 448 kts | 88° |
| 2026-05-05 07:06 | 33.20286 | 131.35113 | 24423 ft | 453 kts | 88° |
| 2026-05-05 07:07 | 33.20474 | 131.38900 | 24785 ft | 459 kts | 88° |
| 2026-05-05 07:07 | 33.20664 | 131.42724 | 25118 ft | 465 kts | 89° |
| 2026-05-05 07:07 | 33.20855 | 131.46597 | 25487 ft | 469 kts | 89° |
| 2026-05-05 07:07 | 33.21048 | 131.50517 | 25858 ft | 474 kts | 89° |
| 2026-05-05 07:08 | 33.21240 | 131.54462 | 26199 ft | 479 kts | 89° |
| 2026-05-05 07:08 | 33.21433 | 131.58450 | 26544 ft | 484 kts | 89° |
| 2026-05-05 07:08 | 33.21627 | 131.62479 | 26907 ft | 488 kts | 89° |
| 2026-05-05 07:08 | 33.21819 | 131.66498 | 27252 ft | 492 kts | 89° |
| 2026-05-05 07:09 | 33.22141 | 131.70586 | 27550 ft | 499 kts | 79° |
| 2026-05-05 07:09 | 33.23211 | 131.74547 | 27891 ft | 503 kts | 67° |
| 2026-05-05 07:09 | 33.24557 | 131.78418 | 28255 ft | 506 kts | 66° |
| 2026-05-05 07:09 | 33.25953 | 131.82301 | 28556 ft | 511 kts | 65° |
| 2026-05-05 07:10 | 33.27359 | 131.86229 | 28857 ft | 516 kts | 66° |
| 2026-05-05 07:10 | 33.28752 | 131.90197 | 29168 ft | 520 kts | 66° |
| 2026-05-05 07:10 | 33.30135 | 131.94215 | 29492 ft | 524 kts | 67° |
| 2026-05-05 07:10 | 33.31508 | 131.98260 | 29796 ft | 527 kts | 67° |
| 2026-05-05 07:11 | 33.32886 | 132.02349 | 30084 ft | 532 kts | 67° |
| 2026-05-05 07:11 | 33.34269 | 132.06468 | 30350 ft | 535 kts | 67° |
| 2026-05-05 07:11 | 33.35658 | 132.10607 | 30611 ft | 538 kts | 67° |
| 2026-05-05 07:11 | 33.37057 | 132.14774 | 30887 ft | 541 kts | 68° |
| 2026-05-05 07:12 | 33.38466 | 132.18971 | 31156 ft | 543 kts | 68° |
| 2026-05-05 07:12 | 33.39875 | 132.23169 | 31473 ft | 544 kts | 68° |
| 2026-05-05 07:12 | 33.41265 | 132.27318 | 31814 ft | 544 kts | 68° |
| 2026-05-05 07:12 | 33.42678 | 132.31537 | 32159 ft | 544 kts | 68° |
| 2026-05-05 07:13 | 33.44083 | 132.35742 | 32463 ft | 545 kts | 69° |
| 2026-05-05 07:13 | 33.45500 | 132.39976 | 32747 ft | 546 kts | 69° |
| 2026-05-05 07:13 | 33.46913 | 132.44195 | 33060 ft | 547 kts | 69° |
| 2026-05-05 07:13 | 33.48330 | 132.48431 | 33386 ft | 548 kts | 69° |
| 2026-05-05 07:14 | 33.49749 | 132.52677 | 33687 ft | 549 kts | 69° |
| 2026-05-05 07:14 | 33.51147 | 132.56865 | 33962 ft | 550 kts | 69° |
| 2026-05-05 07:14 | 33.52106 | 132.59743 | 34140 ft | 550 kts | 69° |
| 2026-05-05 07:14 | 33.53981 | 132.65381 | 34485 ft | 549 kts | 69° |
| 2026-05-05 07:15 | 33.55393 | 132.69632 | 34809 ft | 548 kts | 69° |
| 2026-05-05 07:15 | 33.56801 | 132.73874 | 35034 ft | 549 kts | 69° |
| 2026-05-05 07:15 | 33.58217 | 132.78152 | 35005 ft | 553 kts | 69° |
| 2026-05-05 07:16 | 33.60569 | 132.85270 | 35023 ft | 551 kts | 69° |
| 2026-05-05 07:16 | 33.63372 | 132.93766 | 35027 ft | 544 kts | 69° |
| 2026-05-05 07:17 | 33.65898 | 133.02301 | 35023 ft | 543 kts | 75° |
| 2026-05-05 07:17 | 33.67943 | 133.11052 | 35048 ft | 543 kts | 77° |
| 2026-05-05 07:18 | 33.69942 | 133.19809 | 35054 ft | 545 kts | 76° |
| 2026-05-05 07:18 | 33.72009 | 133.28551 | 35019 ft | 547 kts | 76° |
| 2026-05-05 07:19 | 33.74112 | 133.37347 | 35049 ft | 547 kts | 76° |
| 2026-05-05 07:19 | 33.76206 | 133.46157 | 35028 ft | 549 kts | 76° |
| 2026-05-05 07:20 | 33.78295 | 133.54993 | 35049 ft | 551 kts | 76° |
| 2026-05-05 07:20 | 33.80401 | 133.63894 | 35012 ft | 553 kts | 76° |
| 2026-05-05 07:21 | 33.82497 | 133.72764 | 35041 ft | 550 kts | 76° |
| 2026-05-05 07:21 | 33.84472 | 133.81158 | 35051 ft | 551 kts | 76° |
| 2026-05-05 07:22 | 33.86550 | 133.90020 | 35041 ft | 549 kts | 76° |
| 2026-05-05 07:22 | 33.88602 | 133.98800 | 35026 ft | 548 kts | 76° |
| 2026-05-05 07:23 | 33.90657 | 134.07632 | 35020 ft | 546 kts | 76° |
| 2026-05-05 07:23 | 33.92688 | 134.16393 | 35016 ft | 545 kts | 76° |
| 2026-05-05 07:24 | 33.94717 | 134.25167 | 35026 ft | 543 kts | 76° |
| 2026-05-05 07:24 | 33.96736 | 134.33931 | 35028 ft | 541 kts | 76° |
| 2026-05-05 07:25 | 33.98739 | 134.42666 | 35041 ft | 541 kts | 76° |
| 2026-05-05 07:25 | 34.00741 | 134.51428 | 35031 ft | 543 kts | 76° |
| 2026-05-05 07:26 | 34.02741 | 134.60213 | 35033 ft | 545 kts | 76° |
| 2026-05-05 07:26 | 34.04748 | 134.69053 | 35023 ft | 547 kts | 76° |
| 2026-05-05 07:27 | 34.06737 | 134.77852 | 35021 ft | 549 kts | 76° |
| 2026-05-05 07:27 | 34.08744 | 134.86763 | 35027 ft | 550 kts | 76° |
| 2026-05-05 07:28 | 34.10749 | 134.95691 | 35032 ft | 551 kts | 76° |
| 2026-05-05 07:28 | 34.12749 | 135.04629 | 35032 ft | 552 kts | 76° |
| 2026-05-05 07:29 | 34.14748 | 135.13577 | 35026 ft | 552 kts | 76° |
| 2026-05-05 07:29 | 34.16741 | 135.22531 | 35025 ft | 551 kts | 76° |
| 2026-05-05 07:30 | 34.18722 | 135.31467 | 35012 ft | 550 kts | 76° |
| 2026-05-05 07:30 | 34.21661 | 135.44789 | 35014 ft | 549 kts | 77° |
| 2026-05-05 07:31 | 34.23629 | 135.53753 | 35018 ft | 548 kts | 77° |
| 2026-05-05 07:31 | 34.25566 | 135.62607 | 35009 ft | 548 kts | 77° |
| 2026-05-05 07:32 | 34.27508 | 135.71526 | 35005 ft | 547 kts | 77° |
| 2026-05-05 07:32 | 34.29431 | 135.80381 | 35016 ft | 544 kts | 77° |
| 2026-05-05 07:33 | 34.31349 | 135.89241 | 35037 ft | 543 kts | 77° |
| 2026-05-05 07:33 | 34.33259 | 135.98111 | 35020 ft | 546 kts | 77° |
| 2026-05-05 07:34 | 34.35173 | 136.07028 | 35025 ft | 549 kts | 77° |
| 2026-05-05 07:34 | 34.37086 | 136.15975 | 35026 ft | 550 kts | 77° |
| 2026-05-05 07:35 | 34.38992 | 136.24948 | 35058 ft | 549 kts | 77° |
| 2026-05-05 07:35 | 34.40876 | 136.33864 | 35065 ft | 549 kts | 77° |
| 2026-05-05 07:36 | 34.42765 | 136.42836 | 35049 ft | 548 kts | 77° |
| 2026-05-05 07:36 | 34.44647 | 136.51801 | 35058 ft | 549 kts | 77° |
| 2026-05-05 07:37 | 34.46523 | 136.60766 | 35054 ft | 550 kts | 77° |
| 2026-05-05 07:37 | 34.48389 | 136.69721 | 35059 ft | 551 kts | 77° |
| 2026-05-05 07:38 | 34.50261 | 136.78750 | 35060 ft | 552 kts | 77° |
| 2026-05-05 07:38 | 34.52128 | 136.87785 | 35051 ft | 553 kts | 77° |
| 2026-05-05 07:39 | 34.53840 | 136.96867 | 35044 ft | 551 kts | 85° |
| 2026-05-05 07:39 | 34.54148 | 137.06054 | 35062 ft | 543 kts | 95° |
| 2026-05-05 07:40 | 34.54097 | 137.15226 | 35055 ft | 543 kts | 95° |
| 2026-05-05 07:40 | 34.54104 | 137.24392 | 35054 ft | 543 kts | 95° |
| 2026-05-05 07:41 | 34.54164 | 137.33539 | 35053 ft | 543 kts | 94° |
| 2026-05-05 07:41 | 34.54224 | 137.42701 | 35054 ft | 542 kts | 94° |
| 2026-05-05 07:42 | 34.54269 | 137.51790 | 35061 ft | 542 kts | 94° |
| 2026-05-05 07:42 | 34.54306 | 137.60924 | 35046 ft | 533 kts | 95° |
| 2026-05-05 07:43 | 34.54321 | 137.65353 | 35036 ft | 519 kts | 95° |
| 2026-05-05 07:43 | 34.54329 | 137.69691 | 35040 ft | 506 kts | 95° |
| 2026-05-05 07:43 | 34.54333 | 137.73897 | 35040 ft | 493 kts | 95° |
| 2026-05-05 07:43 | 34.54334 | 137.77997 | 35035 ft | 481 kts | 96° |
| 2026-05-05 07:44 | 34.54321 | 137.86159 | 35088 ft | 489 kts | 96° |
| 2026-05-05 07:44 | 34.54307 | 137.94471 | 35086 ft | 503 kts | 95° |
| 2026-05-05 07:45 | 34.54300 | 138.02997 | 35075 ft | 507 kts | 95° |
| 2026-05-05 07:45 | 34.54289 | 138.11464 | 35052 ft | 496 kts | 96° |
| 2026-05-05 07:46 | 34.54267 | 138.19821 | 35074 ft | 496 kts | 96° |
| 2026-05-05 07:46 | 34.54239 | 138.28212 | 35078 ft | 498 kts | 96° |
| 2026-05-05 07:47 | 34.54537 | 138.36648 | 35064 ft | 505 kts | 82° |
| 2026-05-05 07:47 | 34.56618 | 138.44767 | 35070 ft | 506 kts | 61° |
| 2026-05-05 07:48 | 34.59833 | 138.52325 | 35077 ft | 507 kts | 59° |
| 2026-05-05 07:48 | 34.63100 | 138.59928 | 35087 ft | 508 kts | 60° |
| 2026-05-05 07:49 | 34.66298 | 138.67625 | 34960 ft | 517 kts | 60° |
| 2026-05-05 07:49 | 34.67917 | 138.71555 | 34492 ft | 521 kts | 60° |
| 2026-05-05 07:49 | 34.69472 | 138.75402 | 33834 ft | 527 kts | 65° |
| 2026-05-05 07:50 | 34.70708 | 138.79610 | 33182 ft | 531 kts | 76° |
| 2026-05-05 07:50 | 34.71479 | 138.83994 | 32703 ft | 528 kts | 84° |
| 2026-05-05 07:50 | 34.71729 | 138.88402 | 32414 ft | 517 kts | 96° |
| 2026-05-05 07:50 | 34.71637 | 138.92673 | 32086 ft | 506 kts | 97° |
| 2026-05-05 07:51 | 34.71531 | 138.97014 | 31315 ft | 507 kts | 96° |
| 2026-05-05 07:51 | 34.71476 | 139.01163 | 30660 ft | 505 kts | 95° |
| 2026-05-05 07:51 | 34.71465 | 139.02595 | 30468 ft | 503 kts | 95° |
| 2026-05-05 07:51 | 34.71445 | 139.06724 | 29919 ft | 496 kts | 95° |
| 2026-05-05 07:52 | 34.71428 | 139.10877 | 29345 ft | 488 kts | 95° |
| 2026-05-05 07:52 | 34.71409 | 139.14966 | 28753 ft | 481 kts | 95° |
| 2026-05-05 07:52 | 34.71384 | 139.19021 | 28150 ft | 475 kts | 94° |
| 2026-05-05 07:52 | 34.71355 | 139.22989 | 27563 ft | 469 kts | 94° |
| 2026-05-05 07:53 | 34.71324 | 139.26954 | 26987 ft | 463 kts | 94° |
| 2026-05-05 07:53 | 34.71292 | 139.30781 | 26438 ft | 457 kts | 94° |
| 2026-05-05 07:53 | 34.71261 | 139.34621 | 25898 ft | 451 kts | 93° |
| 2026-05-05 07:53 | 34.71233 | 139.38418 | 25378 ft | 446 kts | 91° |
| 2026-05-05 07:54 | 34.71664 | 139.42125 | 24833 ft | 442 kts | 71° |
| 2026-05-05 07:54 | 34.72906 | 139.45487 | 24336 ft | 432 kts | 58° |
| 2026-05-05 07:54 | 34.74375 | 139.48631 | 23885 ft | 424 kts | 56° |
| 2026-05-05 07:54 | 34.75854 | 139.51708 | 23344 ft | 417 kts | 56° |
| 2026-05-05 07:55 | 34.77294 | 139.54736 | 22825 ft | 411 kts | 57° |
| 2026-05-05 07:55 | 34.78693 | 139.57734 | 22327 ft | 403 kts | 57° |
| 2026-05-05 07:55 | 34.80049 | 139.60683 | 21825 ft | 397 kts | 58° |
| 2026-05-05 07:55 | 34.81378 | 139.63589 | 21325 ft | 390 kts | 58° |
| 2026-05-05 07:56 | 34.82689 | 139.66458 | 20842 ft | 383 kts | 57° |
| 2026-05-05 07:56 | 34.84309 | 139.68944 | 20313 ft | 369 kts | 36° |
| 2026-05-05 07:56 | 34.86375 | 139.70588 | 19848 ft | 353 kts | 18° |
| 2026-05-05 07:56 | 34.88657 | 139.71595 | 19373 ft | 344 kts | 13° |
| 2026-05-05 07:57 | 34.90924 | 139.72460 | 18862 ft | 340 kts | 13° |
| 2026-05-05 07:57 | 34.93166 | 139.73325 | 18382 ft | 335 kts | 14° |
| 2026-05-05 07:57 | 34.95337 | 139.74193 | 18154 ft | 322 kts | 14° |
| 2026-05-05 07:57 | 34.97423 | 139.75042 | 18072 ft | 311 kts | 16° |
| 2026-05-05 07:58 | 34.99378 | 139.76208 | 17760 ft | 315 kts | 28° |
| 2026-05-05 07:58 | 35.01254 | 139.77656 | 17529 ft | 325 kts | 30° |
| 2026-05-05 07:58 | 35.03180 | 139.79194 | 17289 ft | 333 kts | 30° |
| 2026-05-05 07:58 | 35.05132 | 139.80756 | 17035 ft | 336 kts | 30° |
| 2026-05-05 07:59 | 35.07064 | 139.82296 | 16773 ft | 335 kts | 30° |
| 2026-05-05 07:59 | 35.09019 | 139.83842 | 16518 ft | 333 kts | 30° |
| 2026-05-05 07:59 | 35.10960 | 139.85370 | 16287 ft | 331 kts | 29° |
| 2026-05-05 07:59 | 35.12904 | 139.86893 | 16035 ft | 330 kts | 29° |
| 2026-05-05 08:00 | 35.14836 | 139.88404 | 15787 ft | 329 kts | 29° |
| 2026-05-05 08:00 | 35.16758 | 139.89905 | 15538 ft | 327 kts | 29° |
| 2026-05-05 08:00 | 35.18676 | 139.91402 | 15301 ft | 326 kts | 29° |
| 2026-05-05 08:00 | 35.20586 | 139.92893 | 15050 ft | 325 kts | 29° |
| 2026-05-05 08:01 | 35.21846 | 139.93877 | 14895 ft | 324 kts | 29° |
| 2026-05-05 08:01 | 35.24384 | 139.95859 | 14575 ft | 323 kts | 29° |
| 2026-05-05 08:01 | 35.26278 | 139.97339 | 14347 ft | 323 kts | 29° |
| 2026-05-05 08:01 | 35.27392 | 139.98210 | 14211 ft | 322 kts | 29° |
| 2026-05-05 08:02 | 35.29896 | 140.00170 | 13895 ft | 321 kts | 29° |
| 2026-05-05 08:02 | 35.31786 | 140.01649 | 13630 ft | 321 kts | 30° |
| 2026-05-05 08:02 | 35.33028 | 140.02623 | 13445 ft | 320 kts | 30° |
| 2026-05-05 08:02 | 35.34895 | 140.04085 | 13211 ft | 319 kts | 30° |
| 2026-05-05 08:03 | 35.36756 | 140.05545 | 12936 ft | 315 kts | 30° |
| 2026-05-05 08:03 | 35.38591 | 140.06986 | 12674 ft | 311 kts | 30° |
| 2026-05-05 08:03 | 35.40401 | 140.08407 | 12424 ft | 308 kts | 30° |
| 2026-05-05 08:03 | 35.42205 | 140.09824 | 12185 ft | 306 kts | 30° |
| 2026-05-05 08:04 | 35.43996 | 140.11230 | 11921 ft | 305 kts | 30° |
| 2026-05-05 08:04 | 35.45780 | 140.12633 | 11672 ft | 303 kts | 30° |
| 2026-05-05 08:04 | 35.47553 | 140.14028 | 11436 ft | 302 kts | 30° |
| 2026-05-05 08:04 | 35.49317 | 140.15416 | 11194 ft | 301 kts | 30° |
| 2026-05-05 08:05 | 35.51078 | 140.16803 | 10962 ft | 300 kts | 30° |
| 2026-05-05 08:05 | 35.52834 | 140.18185 | 10721 ft | 299 kts | 30° |
| 2026-05-05 08:05 | 35.54579 | 140.19561 | 10486 ft | 298 kts | 30° |
| 2026-05-05 08:05 | 35.56325 | 140.20938 | 10251 ft | 297 kts | 30° |
| 2026-05-05 08:06 | 35.58045 | 140.22278 | 10014 ft | 295 kts | 26° |
| 2026-05-05 08:06 | 35.59967 | 140.23020 | 9737 ft | 287 kts | 2° |
| 2026-05-05 08:06 | 35.61914 | 140.22779 | 9481 ft | 279 kts | 342° |
| 2026-05-05 08:06 | 35.63742 | 140.22004 | 9235 ft | 277 kts | 339° |
| 2026-05-05 08:07 | 35.65543 | 140.21194 | 8974 ft | 273 kts | 338° |
| 2026-05-05 08:07 | 35.67319 | 140.20403 | 8721 ft | 270 kts | 339° |
| 2026-05-05 08:07 | 35.69055 | 140.19571 | 8453 ft | 266 kts | 329° |
| 2026-05-05 08:07 | 35.70431 | 140.18091 | 8199 ft | 261 kts | 306° |
| 2026-05-05 08:08 | 35.71257 | 140.16128 | 7954 ft | 259 kts | 290° |
| 2026-05-05 08:08 | 35.71837 | 140.14055 | 7717 ft | 256 kts | 289° |
| 2026-05-05 08:08 | 35.72402 | 140.11978 | 7474 ft | 254 kts | 289° |
| 2026-05-05 08:08 | 35.72970 | 140.09918 | 7227 ft | 252 kts | 289° |
| 2026-05-05 08:09 | 35.73538 | 140.07882 | 6987 ft | 250 kts | 289° |
| 2026-05-05 08:09 | 35.74098 | 140.05886 | 6753 ft | 249 kts | 289° |
| 2026-05-05 08:09 | 35.74663 | 140.03878 | 6508 ft | 248 kts | 289° |
| 2026-05-05 08:09 | 35.75225 | 140.01880 | 6242 ft | 247 kts | 289° |
| 2026-05-05 08:10 | 35.75785 | 139.99888 | 6070 ft | 245 kts | 288° |
| 2026-05-05 08:10 | 35.76342 | 139.97910 | 6033 ft | 244 kts | 288° |
| 2026-05-05 08:10 | 35.76900 | 139.95925 | 6033 ft | 247 kts | 288° |
| 2026-05-05 08:10 | 35.77468 | 139.93900 | 6036 ft | 253 kts | 288° |
| 2026-05-05 08:11 | 35.78045 | 139.91839 | 6026 ft | 254 kts | 287° |
| 2026-05-05 08:11 | 35.78620 | 139.89790 | 6015 ft | 253 kts | 287° |
| 2026-05-05 08:11 | 35.79196 | 139.87738 | 6022 ft | 253 kts | 287° |
| 2026-05-05 08:11 | 35.79778 | 139.85656 | 5777 ft | 261 kts | 287° |
| 2026-05-05 08:12 | 35.80373 | 139.83527 | 5550 ft | 263 kts | 286° |
| 2026-05-05 08:12 | 35.80959 | 139.81431 | 5307 ft | 260 kts | 285° |
| 2026-05-05 08:12 | 35.81402 | 139.79294 | 5068 ft | 255 kts | 277° |
| 2026-05-05 08:12 | 35.81699 | 139.77151 | 4843 ft | 252 kts | 275° |
| 2026-05-05 08:13 | 35.81794 | 139.75032 | 4599 ft | 245 kts | 256° |
| 2026-05-05 08:13 | 35.81139 | 139.73162 | 4467 ft | 232 kts | 230° |
| 2026-05-05 08:13 | 35.80002 | 139.71861 | 4375 ft | 218 kts | 211° |
| 2026-05-05 08:13 | 35.78737 | 139.70934 | 4275 ft | 205 kts | 207° |
| 2026-05-05 08:14 | 35.77530 | 139.70101 | 4174 ft | 193 kts | 207° |
| 2026-05-05 08:14 | 35.76384 | 139.69309 | 4081 ft | 188 kts | 207° |
| 2026-05-05 08:14 | 35.75247 | 139.68565 | 4004 ft | 186 kts | 197° |
| 2026-05-05 08:14 | 35.73989 | 139.68462 | 3894 ft | 178 kts | 173° |
| 2026-05-05 08:15 | 35.72798 | 139.68697 | 3794 ft | 168 kts | 171° |
| 2026-05-05 08:15 | 35.71666 | 139.68947 | 3669 ft | 163 kts | 171° |
| 2026-05-05 08:15 | 35.70562 | 139.69192 | 3556 ft | 160 kts | 171° |
| 2026-05-05 08:15 | 35.69475 | 139.69491 | 3371 ft | 164 kts | 158° |
| 2026-05-05 08:16 | 35.68494 | 139.70201 | 3192 ft | 164 kts | 152° |
| 2026-05-05 08:16 | 35.67502 | 139.70909 | 2958 ft | 165 kts | 153° |
| 2026-05-05 08:16 | 35.66511 | 139.71611 | 2690 ft | 164 kts | 153° |
| 2026-05-05 08:16 | 35.65527 | 139.72309 | 2429 ft | 160 kts | 153° |
| 2026-05-05 08:17 | 35.64579 | 139.72982 | 2187 ft | 155 kts | 153° |
| 2026-05-05 08:17 | 35.63680 | 139.73621 | 1962 ft | 145 kts | 154° |
| 2026-05-05 08:17 | 35.62823 | 139.74229 | 1800 ft | 139 kts | 153° |
| 2026-05-05 08:17 | 35.62001 | 139.74814 | 1570 ft | 137 kts | 154° |
| 2026-05-05 08:18 | 35.61187 | 139.75389 | 1324 ft | 133 kts | 153° |
| 2026-05-05 08:18 | 35.60396 | 139.75971 | 1073 ft | 132 kts | 154° |
| 2026-05-05 08:18 | 35.59597 | 139.76532 | 881 ft | 133 kts | 153° |
| 2026-05-05 08:18 | 35.58780 | 139.77106 | 659 ft | 135 kts | 154° |
| 2026-05-05 08:19 | 35.57984 | 139.77678 | 416 ft | 130 kts | 154° |
| 2026-05-05 08:19 | 35.57215 | 139.78229 | 223 ft | 128 kts | 155° |
| 2026-05-05 08:19 | 35.56423 | 139.78779 | 94 ft | 132 kts | 155° |
| 2026-05-05 08:19 | 35.55653 | 139.79315 | 27 ft | 113 kts | 154° |
| 2026-05-05 08:20 | 35.55163 | 139.79666 | 27 ft | 38 kts | 150° |
| 2026-05-05 08:20 | 35.55007 | 139.79736 | 27 ft | 17 kts | 170° |
| 2026-05-05 08:20 | 35.54916 | 139.79749 | 28 ft | 13 kts | 178° |
| 2026-05-05 08:20 | 35.54839 | 139.79709 | 26 ft | 11 kts | 238° |
| 2026-05-05 08:21 | 35.54799 | 139.79624 | 25 ft | 12 kts | 240° |
| 2026-05-05 08:21 | 35.54810 | 139.79538 | 26 ft | 11 kts | 325° |
| 2026-05-05 08:21 | 35.54875 | 139.79489 | 27 ft | 11 kts | 330° |
| 2026-05-05 08:21 | 35.54944 | 139.79440 | 27 ft | 13 kts | 330° |
| 2026-05-05 08:22 | 35.55030 | 139.79379 | 26 ft | 12 kts | 329° |
| 2026-05-05 08:22 | 35.55076 | 139.79310 | 25 ft | 11 kts | 262° |
| 2026-05-05 08:22 | 35.55041 | 139.79232 | 26 ft | 10 kts | 240° |
| 2026-05-05 08:22 | 35.55000 | 139.79165 | 26 ft | 10 kts | 204° |
| 2026-05-05 08:23 | 35.54943 | 139.79152 | 29 ft | 6 kts | 187° |
| 2026-05-05 08:23 | 35.54923 | 139.79149 | 26 ft | 0 kts | 187° |